Time;durP1;ratioP1;P1;durP2;ratioP2;P2;SDS_P1;SDS_P2;PMS_P1;PMS_P2;Temp;Humidity;BMP_temperature;BMP_pressure;BME280_temperature;BME280_humidity;BME280_pressure;Samples;Min_cycle;Max_cycle;Signal;HPM_P1;HPM_P2
2023/06/19 00:01:18;;;;;;;7.10;6.50;;;23.40;95.90;;;;;;5032095;28;20178;-71
2023/06/19 00:03:44;;;;;;;6.93;6.33;;;23.40;96.10;;;;;;5031674;28;20425;-70
2023/06/19 00:06:12;;;;;;;7.17;6.57;;;23.40;96.40;;;;;;5032461;28;20408;-71
2023/06/19 00:08:38;;;;;;;7.13;6.53;;;23.40;96.60;;;;;;5032158;28;20217;-71
2023/06/19 00:11:03;;;;;;;6.20;5.70;;;23.30;96.80;;;;;;5032321;28;20417;-70
2023/06/19 00:13:29;;;;;;;6.83;6.23;;;23.30;97.10;;;;;;5031209;28;20178;-70
2023/06/19 00:16:00;;;;;;;6.67;6.07;;;23.20;97.40;;;;;;5032362;28;20174;-72
2023/06/19 00:18:26;;;;;;;6.87;6.27;;;23.20;97.90;;;;;;5030944;28;20212;-71
2023/06/19 00:20:54;;;;;;;6.90;6.30;;;23.20;98.30;;;;;;5032201;28;20413;-71
2023/06/19 00:23:19;;;;;;;7.00;6.30;;;23.10;98.50;;;;;;5031043;28;20435;-72
2023/06/19 00:25:45;;;;;;;7.03;6.43;;;23.10;98.70;;;;;;5031935;28;20506;-72
2023/06/19 00:28:14;;;;;;;7.53;6.93;;;22.90;99.40;;;;;;5031833;28;20206;-71
2023/06/19 00:30:40;;;;;;;6.37;5.87;;;22.80;99.90;;;;;;5031997;28;20659;-71
2023/06/19 00:33:07;;;;;;;6.73;6.13;;;22.70;99.90;;;;;;5031015;28;20424;-71
2023/06/19 00:35:33;;;;;;;6.57;6.00;;;22.50;99.90;;;;;;5031743;28;20444;-73
2023/06/19 00:38:02;;;;;;;7.20;6.60;;;22.40;99.90;;;;;;5031728;28;20417;-73
2023/06/19 00:40:28;;;;;;;7.00;6.30;;;22.30;99.90;;;;;;5031587;28;20424;-74
2023/06/19 00:42:54;;;;;;;6.73;6.03;;;22.20;99.90;;;;;;5031026;28;20766;-71
2023/06/19 00:45:20;;;;;;;6.40;5.90;;;22.20;99.90;;;;;;5031370;28;20420;-69
2023/06/19 00:47:46;;;;;;;7.20;6.17;;;22.10;99.90;;;;;;5031653;28;21003;-71
2023/06/19 00:50:12;;;;;;;6.40;5.90;;;22.00;99.90;;;;;;5031338;28;20186;-71
2023/06/19 00:52:38;;;;;;;6.17;5.67;;;21.90;99.90;;;;;;5029911;28;20254;-71
2023/06/19 00:55:05;;;;;;;7.10;6.50;;;21.90;99.90;;;;;;5030992;28;21061;-71
2023/06/19 00:57:31;;;;;;;6.13;5.57;;;21.80;99.90;;;;;;5031578;28;20413;-71
2023/06/19 00:59:58;;;;;;;7.10;6.50;;;21.80;99.90;;;;;;5030113;28;20447;-70
2023/06/19 01:02:25;;;;;;;7.10;6.50;;;21.70;99.90;;;;;;5030744;28;20429;-71
2023/06/19 01:04:54;;;;;;;7.03;6.50;;;21.70;99.90;;;;;;5030869;28;20444;-69
2023/06/19 01:07:27;;;;;;;6.90;6.20;;;21.60;99.90;;;;;;5031172;28;20463;-71
2023/06/19 01:09:59;;;;;;;6.90;6.30;;;21.60;99.90;;;;;;5031125;28;20464;-71
2023/06/19 01:12:33;;;;;;;7.03;6.43;;;21.60;99.90;;;;;;5030587;28;20417;-71
2023/06/19 01:15:02;;;;;;;6.63;6.03;;;21.70;99.90;;;;;;5030828;28;20409;-70
2023/06/19 01:17:29;;;;;;;6.53;6.03;;;21.70;99.90;;;;;;5031039;28;20418;-70
2023/06/19 01:19:56;;;;;;;6.90;6.30;;;21.70;99.90;;;;;;5031095;28;21017;-70
2023/06/19 01:22:31;;;;;;;6.50;6.00;;;21.70;99.90;;;;;;5030476;28;20453;-70
2023/06/19 01:24:57;;;;;;;6.53;6.03;;;21.80;99.90;;;;;;5030450;28;20413;-70
2023/06/19 01:27:31;;;;;;;6.93;6.33;;;21.90;99.90;;;;;;5030786;28;20534;-69
2023/06/19 01:30:02;;;;;;;6.10;5.60;;;21.90;99.90;;;;;;5030763;28;20487;-70
2023/06/19 01:33:00;;;;;;;5.93;5.47;;;21.90;99.90;;;;;;5030149;28;20424;-71
2023/06/19 01:35:29;;;;;;;6.00;5.60;;;22.00;99.90;;;;;;5021760;28;20432;-71
2023/06/19 01:37:55;;;;;;;7.23;5.97;;;22.10;99.90;;;;;;5030937;28;20902;-70
2023/06/19 01:40:25;;;;;;;6.00;5.50;;;22.10;99.90;;;;;;5030519;28;20883;-72
2023/06/19 01:42:52;;;;;;;6.97;6.47;;;22.10;99.90;;;;;;5029869;28;20421;-71
2023/06/19 01:45:18;;;;;;;7.10;6.40;;;22.10;99.90;;;;;;5030184;28;20425;-72
2023/06/19 01:47:44;;;;;;;6.93;6.27;;;22.00;99.90;;;;;;5030345;28;20457;-71
2023/06/19 01:50:11;;;;;;;6.10;5.60;;;22.00;99.90;;;;;;5030338;28;20483;-71
2023/06/19 01:52:38;;;;;;;6.20;5.70;;;22.00;99.90;;;;;;5028631;28;20210;-72
2023/06/19 01:55:05;;;;;;;6.80;6.20;;;22.00;99.90;;;;;;5029933;28;20413;-71
2023/06/19 01:57:31;;;;;;;7.00;6.40;;;22.00;99.90;;;;;;5030364;28;20425;-72
2023/06/19 01:59:57;;;;;;;7.10;6.40;;;21.90;99.90;;;;;;5030160;28;20467;-72
2023/06/19 02:02:23;;;;;;;6.50;5.93;;;21.80;99.90;;;;;;5027991;28;20458;-72
2023/06/19 02:04:48;;;;;;;6.93;6.33;;;21.70;99.90;;;;;;5029651;28;20206;-71
2023/06/19 02:07:14;;;;;;;6.93;6.33;;;21.80;99.90;;;;;;5030033;28;20206;-72
2023/06/19 02:09:41;;;;;;;7.13;6.53;;;21.70;99.90;;;;;;5029949;28;20238;-71
2023/06/19 02:12:07;;;;;;;6.43;5.83;;;21.80;99.90;;;;;;5029565;28;20178;-72
2023/06/19 02:14:33;;;;;;;6.07;5.47;;;21.90;99.90;;;;;;5029749;28;20413;-72
2023/06/19 02:16:58;;;;;;;7.40;6.70;;;21.90;99.90;;;;;;5023576;28;20433;-72
2023/06/19 02:19:24;;;;;;;6.40;5.80;;;22.00;99.90;;;;;;5029415;28;20348;-71
2023/06/19 02:21:50;;;;;;;6.53;6.00;;;22.10;99.90;;;;;;5028827;28;20182;-71
2023/06/19 02:24:15;;;;;;;7.27;6.67;;;22.20;99.90;;;;;;5029134;28;20608;-72
2023/06/19 02:26:43;;;;;;;6.53;6.03;;;22.30;99.90;;;;;;5030457;28;20317;-72
2023/06/19 02:29:09;;;;;;;7.53;6.83;;;22.30;99.90;;;;;;5034280;28;20272;-72
2023/06/19 02:31:35;;;;;;;7.33;6.47;;;22.30;99.90;;;;;;5028703;28;20510;-72
2023/06/19 02:34:01;;;;;;;7.27;6.50;;;22.40;99.90;;;;;;5028834;28;20505;-72
2023/06/19 02:36:26;;;;;;;7.10;6.60;;;22.40;99.90;;;;;;5029289;28;20183;-72
2023/06/19 02:38:52;;;;;;;6.90;6.40;;;22.40;99.90;;;;;;5029342;28;20769;-72
2023/06/19 02:41:18;;;;;;;7.40;6.80;;;22.40;99.90;;;;;;5028911;28;20195;-72
2023/06/19 02:43:46;;;;;;;8.63;6.90;;;22.50;99.90;;;;;;5028490;28;20182;-72
2023/06/19 02:46:12;;;;;;;7.70;7.10;;;22.40;99.90;;;;;;5029320;28;20182;-72
2023/06/19 02:48:38;;;;;;;8.17;7.47;;;22.40;99.90;;;;;;5028816;28;20483;-72
2023/06/19 02:51:04;;;;;;;7.50;6.90;;;22.40;99.90;;;;;;5028920;28;20750;-72
2023/06/19 02:53:29;;;;;;;6.70;6.10;;;22.40;99.90;;;;;;5028026;28;20178;-71
2023/06/19 02:55:55;;;;;;;7.93;7.13;;;22.40;99.90;;;;;;5029096;28;20177;-72
2023/06/19 02:58:21;;;;;;;7.90;7.20;;;22.40;99.90;;;;;;5028890;28;20214;-72
2023/06/19 03:00:46;;;;;;;7.50;6.77;;;22.40;99.90;;;;;;5028834;28;20684;-71
2023/06/19 03:03:12;;;;;;;7.60;6.90;;;22.40;99.90;;;;;;5027955;28;20181;-71
2023/06/19 03:05:38;;;;;;;7.03;6.40;;;22.40;99.90;;;;;;5028791;28;20607;-72
2023/06/19 03:08:04;;;;;;;7.93;7.33;;;22.40;99.90;;;;;;5028699;28;20285;-72
2023/06/19 03:10:31;;;;;;;8.20;7.50;;;22.40;99.90;;;;;;5027587;28;20786;-71
2023/06/19 03:12:58;;;;;;;7.70;7.10;;;22.50;99.90;;;;;;5026666;28;20496;-72
2023/06/19 03:15:26;;;;;;;7.80;7.10;;;22.50;99.90;;;;;;5027957;28;20508;-72
2023/06/19 03:17:55;;;;;;;8.30;7.60;;;22.50;99.90;;;;;;5028651;28;20474;-72
2023/06/19 03:20:21;;;;;;;7.17;6.60;;;22.50;99.90;;;;;;5028649;28;20447;-72
2023/06/19 03:22:47;;;;;;;7.40;6.70;;;22.60;99.90;;;;;;5027918;28;20910;-72
2023/06/19 03:25:13;;;;;;;6.50;5.97;;;22.50;99.90;;;;;;5026901;28;20186;-73
2023/06/19 03:27:39;;;;;;;6.47;5.97;;;22.60;99.90;;;;;;5035771;28;20467;-72
2023/06/19 03:30:09;;;;;;;7.67;5.57;;;22.60;99.90;;;;;;5028513;28;20194;-70
2023/06/19 03:32:35;;;;;;;5.93;5.43;;;22.50;99.90;;;;;;5027957;28;20208;-71
2023/06/19 03:35:01;;;;;;;5.37;4.87;;;22.50;99.90;;;;;;5021291;28;20953;-71
2023/06/19 03:37:27;;;;;;;5.73;5.23;;;22.50;99.90;;;;;;5028562;28;20194;-72
2023/06/19 03:39:53;;;;;;;5.60;4.90;;;22.50;99.90;;;;;;5020595;28;20444;-71
2023/06/19 03:42:18;;;;;;;5.57;5.07;;;22.40;99.90;;;;;;5027924;28;20307;-71
2023/06/19 03:44:44;;;;;;;4.90;4.50;;;22.40;99.90;;;;;;5028135;28;20385;-70
2023/06/19 03:47:10;;;;;;;5.03;4.63;;;22.30;99.90;;;;;;5027147;28;20210;-71
2023/06/19 03:49:35;;;;;;;5.47;4.97;;;22.30;99.90;;;;;;5028277;28;20310;-71
2023/06/19 03:52:02;;;;;;;5.40;4.90;;;22.30;99.90;;;;;;5027598;28;20170;-72
2023/06/19 03:54:27;;;;;;;5.87;5.30;;;22.20;99.90;;;;;;5028001;28;20533;-71
2023/06/19 03:56:53;;;;;;;5.70;5.17;;;22.10;99.90;;;;;;5028481;28;20508;-72
2023/06/19 03:59:18;;;;;;;6.17;4.10;;;22.10;99.90;;;;;;5028344;28;20211;-71
2023/06/19 04:01:44;;;;;;;5.33;4.70;;;22.10;99.90;;;;;;5027624;28;20190;-71
2023/06/19 04:04:10;;;;;;;4.70;4.30;;;22.10;99.90;;;;;;5027803;28;20197;-71
2023/06/19 04:06:35;;;;;;;4.87;4.47;;;22.00;99.90;;;;;;5028414;28;20683;-72
2023/06/19 04:09:01;;;;;;;5.20;4.80;;;22.00;99.90;;;;;;5028141;28;20578;-71
2023/06/19 04:11:27;;;;;;;4.13;3.83;;;22.00;99.90;;;;;;5027521;28;20566;-71
2023/06/19 04:13:52;;;;;;;5.23;4.23;;;22.00;99.90;;;;;;5027781;28;20650;-73
2023/06/19 04:16:18;;;;;;;4.73;4.33;;;22.00;99.90;;;;;;5028174;28;20643;-72
2023/06/19 04:18:44;;;;;;;5.20;4.70;;;21.90;99.90;;;;;;5027550;28;20214;-71
2023/06/19 04:21:09;;;;;;;4.83;4.43;;;21.90;99.90;;;;;;5028348;28;20194;-73
2023/06/19 04:23:35;;;;;;;4.47;4.07;;;21.90;99.90;;;;;;5027408;28;20194;-71
2023/06/19 04:26:02;;;;;;;3.97;3.67;;;21.80;99.90;;;;;;5030132;28;20177;-71
2023/06/19 04:28:27;;;;;;;4.13;3.73;;;21.80;99.90;;;;;;5047318;28;20213;-70
2023/06/19 04:31:00;;;;;;;4.10;3.80;;;21.80;99.90;;;;;;5051857;28;20770;-72
2023/06/19 04:33:29;;;;;;;4.57;4.00;;;21.80;99.90;;;;;;5050816;28;20605;-71
2023/06/19 04:35:55;;;;;;;4.40;4.00;;;21.70;99.90;;;;;;5051776;28;20475;-71
2023/06/19 04:38:24;;;;;;;4.50;3.90;;;21.70;99.90;;;;;;5051703;28;21117;-73
2023/06/19 04:40:51;;;;;;;4.00;3.60;;;21.70;99.90;;;;;;5035560;28;20432;-72
2023/06/19 04:43:17;;;;;;;4.57;4.17;;;21.70;99.90;;;;;;5030632;28;20543;-71
2023/06/19 04:45:43;;;;;;;4.47;4.07;;;21.60;99.90;;;;;;5032456;28;20521;-72
2023/06/19 04:48:08;;;;;;;3.70;3.40;;;21.70;99.90;;;;;;5028897;28;20457;-70
2023/06/19 04:50:34;;;;;;;3.43;3.13;;;21.70;99.90;;;;;;5028255;28;20269;-70
2023/06/19 04:53:00;;;;;;;4.13;3.73;;;21.70;99.90;;;;;;5030341;28;20203;-70
2023/06/19 04:55:26;;;;;;;4.60;4.20;;;21.70;99.90;;;;;;5027842;28;20926;-73
2023/06/19 04:57:52;;;;;;;5.70;3.13;;;21.70;99.90;;;;;;5031246;28;20552;-72
2023/06/19 05:00:23;;;;;;;4.77;3.03;;;21.80;99.90;;;;;;5031138;28;20998;-70
2023/06/19 05:02:49;;;;;;;3.67;3.37;;;21.70;99.90;;;;;;5030481;28;20445;-69
2023/06/19 05:05:15;;;;;;;3.43;3.13;;;21.60;99.90;;;;;;5030858;28;20803;-70
2023/06/19 05:07:41;;;;;;;4.90;3.23;;;21.60;99.90;;;;;;5031089;28;20468;-70
2023/06/19 05:10:07;;;;;;;2.90;2.70;;;21.60;99.90;;;;;;5031269;28;20433;-70
2023/06/19 05:12:34;;;;;;;3.77;3.33;;;21.60;99.90;;;;;;5029968;28;20209;-70
2023/06/19 05:15:00;;;;;;;3.40;3.10;;;21.60;99.90;;;;;;5030679;28;20910;-70
2023/06/19 05:17:25;;;;;;;3.50;3.20;;;21.60;99.90;;;;;;5030998;28;20457;-70
2023/06/19 05:19:51;;;;;;;3.77;3.13;;;21.70;99.90;;;;;;5030957;28;20555;-70
2023/06/19 05:22:18;;;;;;;3.47;3.17;;;21.70;99.90;;;;;;5030264;28;20183;-70
2023/06/19 05:24:44;;;;;;;3.33;2.97;;;21.80;99.90;;;;;;5030574;28;20214;-70
2023/06/19 05:27:10;;;;;;;4.27;3.27;;;21.90;99.90;;;;;;5035963;28;20455;-70
2023/06/19 05:29:36;;;;;;;3.13;2.90;;;21.90;99.90;;;;;;5035652;28;21009;-70
2023/06/19 05:32:02;;;;;;;4.40;2.80;;;21.80;99.90;;;;;;5030241;28;20185;-70
2023/06/19 05:34:27;;;;;;;3.57;3.27;;;21.70;99.90;;;;;;5030380;28;20221;-70
2023/06/19 05:36:53;;;;;;;4.13;3.10;;;21.70;99.90;;;;;;5029817;28;20655;-70
2023/06/19 05:39:19;;;;;;;4.10;2.60;;;21.80;99.90;;;;;;5030436;28;20248;-70
2023/06/19 05:41:48;;;;;;;3.23;2.93;;;21.70;99.90;;;;;;5029921;28;20551;-70
2023/06/19 05:44:15;;;;;;;4.30;2.60;;;21.80;99.90;;;;;;5030206;28;20178;-70
2023/06/19 05:46:42;;;;;;;3.30;3.00;;;21.90;99.90;;;;;;5029314;28;20409;-71
2023/06/19 05:49:07;;;;;;;2.93;2.50;;;21.80;99.90;;;;;;5030356;28;20468;-70
2023/06/19 05:51:33;;;;;;;3.50;2.73;;;21.70;99.90;;;;;;5029655;28;20508;-70
2023/06/19 05:54:03;;;;;;;3.60;3.30;;;21.70;99.90;;;;;;5019461;28;20266;-70
2023/06/19 05:56:30;;;;;;;3.30;3.00;;;21.70;99.90;;;;;;5023497;28;20231;-70
2023/06/19 05:58:56;;;;;;;3.60;3.03;;;21.70;99.90;;;;;;5025988;28;20460;-70
2023/06/19 06:01:21;;;;;;;3.57;2.57;;;21.70;99.90;;;;;;5029168;28;21177;-70
2023/06/19 06:03:47;;;;;;;3.70;2.77;;;21.70;99.90;;;;;;5021613;28;20606;-70
2023/06/19 06:06:12;;;;;;;3.47;2.60;;;21.70;99.90;;;;;;5027172;28;20541;-70
2023/06/19 06:08:38;;;;;;;2.57;2.37;;;21.70;99.90;;;;;;5027793;28;20295;-70
2023/06/19 06:11:04;;;;;;;3.00;2.70;;;21.60;99.90;;;;;;5029432;28;20189;-70
2023/06/19 06:13:29;;;;;;;3.50;2.90;;;21.60;99.90;;;;;;5022341;28;20216;-70
2023/06/19 06:15:55;;;;;;;3.30;3.00;;;21.60;99.90;;;;;;5021159;28;20194;-70
2023/06/19 06:18:21;;;;;;;2.80;2.60;;;21.70;99.90;;;;;;5023916;28;20221;-70
2023/06/19 06:20:47;;;;;;;4.23;2.90;;;21.60;99.90;;;;;;5020062;28;20179;-69
2023/06/19 06:23:13;;;;;;;4.03;2.33;;;21.80;99.90;;;;;;5023032;28;20467;-69
2023/06/19 06:25:39;;;;;;;3.27;2.97;;;21.90;99.90;;;;;;5025307;28;20325;-69
2023/06/19 06:28:05;;;;;;;3.03;2.83;;;22.00;99.90;;;;;;5022541;28;20693;-70
2023/06/19 06:30:30;;;;;;;3.23;2.93;;;22.00;99.90;;;;;;5029029;28;20574;-69
2023/06/19 06:32:56;;;;;;;2.60;2.40;;;22.00;99.90;;;;;;5028949;28;20471;-69
2023/06/19 06:35:21;;;;;;;3.90;2.93;;;22.00;99.90;;;;;;5029203;28;20186;-69
2023/06/19 06:37:49;;;;;;;3.40;3.10;;;22.10;99.90;;;;;;5029725;28;20248;-69
2023/06/19 06:40:15;;;;;;;3.50;2.80;;;22.20;99.90;;;;;;5029327;28;20216;-70
2023/06/19 06:42:41;;;;;;;2.57;2.37;;;22.20;99.90;;;;;;5028906;28;20426;-69
2023/06/19 06:45:07;;;;;;;3.00;2.53;;;22.30;99.90;;;;;;5029358;28;20182;-69
2023/06/19 06:47:34;;;;;;;2.50;2.30;;;22.30;99.90;;;;;;5026927;28;20202;-69
2023/06/19 06:49:59;;;;;;;3.10;2.80;;;22.40;99.90;;;;;;5019012;28;20433;-70
2023/06/19 06:52:25;;;;;;;2.83;2.40;;;22.50;99.90;;;;;;5016905;28;20418;-70
2023/06/19 06:54:51;;;;;;;2.80;2.60;;;22.60;99.90;;;;;;5008222;28;20182;-69
2023/06/19 06:57:17;;;;;;;4.30;2.80;;;22.80;99.90;;;;;;5018466;28;20277;-69
2023/06/19 06:59:42;;;;;;;4.10;2.97;;;22.90;99.90;;;;;;5027833;28;20247;-69
2023/06/19 07:02:08;;;;;;;4.90;3.20;;;23.00;99.90;;;;;;5028520;28;20186;-69
2023/06/19 07:04:34;;;;;;;3.10;2.70;;;23.10;99.90;;;;;;5028822;28;20206;-69
2023/06/19 07:06:59;;;;;;;3.67;3.10;;;23.00;99.90;;;;;;5029105;28;20190;-70
2023/06/19 07:09:25;;;;;;;3.40;3.07;;;23.00;99.90;;;;;;5029053;28;20576;-69
2023/06/19 07:11:51;;;;;;;3.50;2.80;;;23.00;99.90;;;;;;5027198;28;20221;-71
2023/06/19 07:14:17;;;;;;;3.63;3.33;;;22.90;99.90;;;;;;5027514;28;20748;-70
2023/06/19 07:16:45;;;;;;;3.37;3.07;;;22.80;99.90;;;;;;5028983;28;20217;-69
2023/06/19 07:19:11;;;;;;;3.83;3.00;;;22.50;99.90;;;;;;5028937;28;20488;-70
2023/06/19 07:21:38;;;;;;;3.00;2.70;;;22.40;99.90;;;;;;5028319;28;20953;-71
2023/06/19 07:24:05;;;;;;;2.80;2.33;;;22.30;99.90;;;;;;5028226;28;20567;-70
2023/06/19 07:26:30;;;;;;;3.50;2.77;;;22.30;99.90;;;;;;5028474;28;20460;-70
2023/06/19 07:28:56;;;;;;;3.70;2.80;;;22.20;99.90;;;;;;5028218;28;20489;-70
2023/06/19 07:31:22;;;;;;;3.03;2.60;;;22.20;99.90;;;;;;5027646;28;20429;-71
2023/06/19 07:33:48;;;;;;;2.80;2.60;;;22.10;99.90;;;;;;5028093;28;20186;-71
2023/06/19 07:36:15;;;;;;;4.43;2.90;;;22.00;99.90;;;;;;5028483;28;20287;-70
2023/06/19 07:38:42;;;;;;;3.67;3.30;;;22.00;99.90;;;;;;5028494;28;20202;-71
2023/06/19 07:41:09;;;;;;;3.07;2.77;;;21.90;99.90;;;;;;5028129;28;20820;-71
2023/06/19 07:43:36;;;;;;;3.53;2.63;;;21.90;99.90;;;;;;5027436;28;20421;-70
2023/06/19 07:46:02;;;;;;;4.07;3.67;;;21.90;99.90;;;;;;5026707;28;20937;-71
2023/06/19 07:48:28;;;;;;;3.33;2.80;;;21.90;99.90;;;;;;5028122;28;20461;-70
2023/06/19 07:50:54;;;;;;;3.43;2.80;;;21.90;99.90;;;;;;5028248;28;20409;-70
2023/06/19 07:53:20;;;;;;;3.10;2.80;;;21.90;99.90;;;;;;5026085;28;20974;-71
2023/06/19 07:55:46;;;;;;;3.90;3.50;;;21.80;99.90;;;;;;5028179;28;20190;-71
2023/06/19 07:58:11;;;;;;;3.20;2.90;;;21.80;99.90;;;;;;5028162;28;20193;-71
2023/06/19 08:00:37;;;;;;;4.00;3.60;;;21.80;99.90;;;;;;5029258;28;20182;-71
2023/06/19 08:03:04;;;;;;;3.53;3.20;;;21.80;99.90;;;;;;5031322;28;20424;-70
2023/06/19 08:05:29;;;;;;;3.27;2.97;;;21.80;99.90;;;;;;5031968;28;20456;-71
2023/06/19 08:07:56;;;;;;;4.20;3.23;;;21.80;99.90;;;;;;5032116;28;20938;-71
2023/06/19 08:10:22;;;;;;;3.63;3.13;;;21.80;99.90;;;;;;5031947;28;20724;-71
2023/06/19 08:12:47;;;;;;;7.23;3.93;;;21.80;99.90;;;;;;5030176;28;20417;-71
2023/06/19 08:15:13;;;;;;;3.27;3.03;;;21.80;99.90;;;;;;5031805;28;20711;-70
2023/06/19 08:17:40;;;;;;;5.67;3.50;;;21.90;99.90;;;;;;5032115;28;20485;-71
2023/06/19 08:20:06;;;;;;;3.43;3.10;;;21.90;99.90;;;;;;5032212;28;20190;-71
2023/06/19 08:22:32;;;;;;;3.83;3.30;;;21.90;99.90;;;;;;5031510;28;20518;-71
2023/06/19 08:24:58;;;;;;;4.30;3.90;;;22.00;99.90;;;;;;5031400;28;20445;-71
2023/06/19 08:27:24;;;;;;;3.60;3.30;;;21.80;99.90;;;;;;5031801;28;20457;-70
2023/06/19 08:29:50;;;;;;;3.63;3.33;;;21.90;99.90;;;;;;5031574;28;20194;-71
2023/06/19 08:32:16;;;;;;;3.60;3.27;;;22.00;99.90;;;;;;5031379;28;20265;-71
2023/06/19 08:34:42;;;;;;;4.17;3.40;;;22.00;99.90;;;;;;5031542;28;20224;-70
2023/06/19 08:37:08;;;;;;;3.37;3.10;;;22.10;99.90;;;;;;5031575;28;20886;-70
2023/06/19 08:39:35;;;;;;;5.43;3.77;;;22.20;99.90;;;;;;5031505;28;20961;-70
2023/06/19 08:42:01;;;;;;;3.87;2.93;;;22.20;99.90;;;;;;5030920;28;20413;-71
2023/06/19 08:44:27;;;;;;;3.60;3.03;;;22.20;99.90;;;;;;5031008;28;20496;-71
2023/06/19 08:46:53;;;;;;;3.40;3.10;;;22.30;99.90;;;;;;5029562;28;20419;-70
2023/06/19 08:49:18;;;;;;;5.03;3.50;;;22.20;99.90;;;;;;5031034;28;20289;-70
2023/06/19 08:51:44;;;;;;;3.53;2.80;;;22.10;99.90;;;;;;5030622;28;20439;-70
2023/06/19 08:54:09;;;;;;;3.60;3.30;;;22.00;99.90;;;;;;5030789;28;20182;-71
2023/06/19 08:56:37;;;;;;;3.50;2.53;;;22.00;99.90;;;;;;5031120;28;20206;-71
2023/06/19 08:59:14;;;;;;;3.73;2.70;;;22.00;99.90;;;;;;5030996;28;20210;-70
2023/06/19 09:01:51;;;;;;;3.40;2.43;;;22.10;99.90;;;;;;5030498;28;20499;-70
2023/06/19 09:04:19;;;;;;;4.40;2.70;;;22.20;99.90;;;;;;5030743;28;20872;-71
2023/06/19 09:06:52;;;;;;;2.60;2.40;;;22.20;99.90;;;;;;5031017;28;20475;-70
2023/06/19 09:09:23;;;;;;;2.90;2.60;;;22.30;99.90;;;;;;5030689;28;21024;-71
2023/06/19 09:12:10;;;;;;;3.03;2.80;;;22.30;99.90;;;;;;5029403;28;20414;-71
2023/06/19 09:14:44;;;;;;;3.37;3.17;;;22.30;99.90;;;;;;5030337;28;20918;-70
2023/06/19 09:17:20;;;;;;;2.80;2.60;;;22.40;99.90;;;;;;5030880;28;20412;-71
2023/06/19 09:19:51;;;;;;;3.30;3.00;;;22.60;99.90;;;;;;5030534;28;20444;-71
2023/06/19 09:22:21;;;;;;;2.67;2.47;;;22.60;99.90;;;;;;5030128;28;21129;-71
2023/06/19 09:24:47;;;;;;;3.03;2.73;;;22.70;99.90;;;;;;5030218;28;20421;-71
2023/06/19 09:27:17;;;;;;;2.77;2.57;;;22.80;99.90;;;;;;5030346;28;20410;-71
2023/06/19 09:29:48;;;;;;;3.40;3.10;;;22.90;99.90;;;;;;5030562;28;20429;-70
2023/06/19 09:32:22;;;;;;;3.50;3.13;;;23.20;99.90;;;;;;5029854;28;20412;-70
2023/06/19 09:34:50;;;;;;;3.53;3.20;;;23.40;99.90;;;;;;5030107;28;20413;-70
2023/06/19 09:37:44;;;;;;;5.13;3.20;;;23.50;99.90;;;;;;5030380;28;20508;-71
2023/06/19 09:40:10;;;;;;;3.33;3.10;;;23.60;99.90;;;;;;5028975;28;20445;-71
2023/06/19 09:42:38;;;;;;;3.67;3.37;;;23.60;99.90;;;;;;5029523;28;20459;-70
2023/06/19 09:45:08;;;;;;;5.13;2.80;;;23.60;99.90;;;;;;5028214;28;20890;-70
2023/06/19 09:47:45;;;;;;;4.60;3.20;;;23.60;99.90;;;;;;5030121;28;20479;-70
2023/06/19 09:50:13;;;;;;;3.23;3.00;;;23.70;99.90;;;;;;5029972;28;20816;-71
2023/06/19 09:52:43;;;;;;;3.90;3.50;;;23.50;99.90;;;;;;5029578;28;20448;-71
2023/06/19 09:55:12;;;;;;;3.77;3.27;;;23.50;99.90;;;;;;5029793;28;20405;-70
2023/06/19 09:57:39;;;;;;;5.57;3.50;;;23.60;99.90;;;;;;5030018;28;20471;-71
2023/06/19 10:00:19;;;;;;;6.87;3.73;;;23.60;99.90;;;;;;5029659;28;20433;-71
2023/06/19 10:02:46;;;;;;;3.80;3.50;;;23.70;99.90;;;;;;5028145;28;20428;-71
2023/06/19 10:05:13;;;;;;;3.47;3.17;;;23.70;99.90;;;;;;5029308;28;20436;-71
2023/06/19 10:07:42;;;;;;;3.37;3.07;;;23.80;99.90;;;;;;5029830;28;20579;-71
2023/06/19 10:10:28;;;;;;;5.20;4.03;;;24.00;99.90;;;;;;5029480;28;20437;-70
2023/06/19 10:12:59;;;;;;;3.47;3.23;;;24.00;99.90;;;;;;5027497;28;20895;-71
2023/06/19 10:15:26;;;;;;;3.60;3.20;;;24.00;99.90;;;;;;5029514;28;20512;-70
2023/06/19 10:17:53;;;;;;;5.57;3.50;;;24.20;99.90;;;;;;5030193;28;20895;-71
2023/06/19 10:20:40;;;;;;;3.80;3.40;;;24.40;99.90;;;;;;5029341;28;20981;-71
2023/06/19 10:23:06;;;;;;;4.10;3.30;;;24.50;99.90;;;;;;5028484;28;21237;-71
2023/06/19 10:25:37;;;;;;;3.70;3.40;;;24.60;99.90;;;;;;5029259;28;20425;-70
2023/06/19 10:28:07;;;;;;;3.80;3.40;;;24.60;99.90;;;;;;5029278;28;20285;-71
2023/06/19 10:30:34;;;;;;;5.00;4.07;;;24.80;99.90;;;;;;5029272;28;20417;-71
2023/06/19 10:33:02;;;;;;;4.63;3.83;;;24.90;99.90;;;;;;5028396;28;20887;-71
2023/06/19 10:35:28;;;;;;;3.50;3.20;;;24.90;99.90;;;;;;5011586;28;20471;-71
2023/06/19 10:37:54;;;;;;;7.63;3.67;;;25.00;99.90;;;;;;5025282;28;20445;-70
2023/06/19 10:40:20;;;;;;;6.33;3.90;;;25.10;99.90;;;;;;5028487;28;20213;-71
2023/06/19 10:42:46;;;;;;;3.60;3.30;;;25.20;99.90;;;;;;5027888;28;20552;-70
2023/06/19 10:45:15;;;;;;;3.90;3.60;;;25.20;99.90;;;;;;5026611;28;20194;-70
2023/06/19 10:47:41;;;;;;;3.70;3.40;;;25.30;99.90;;;;;;5028622;28;20543;-71
2023/06/19 10:50:14;;;;;;;5.80;3.37;;;25.40;99.90;;;;;;5028496;28;20433;-71
2023/06/19 10:52:44;;;;;;;4.17;3.77;;;25.50;99.90;;;;;;5027892;28;20428;-71
2023/06/19 10:55:14;;;;;;;4.10;3.60;;;25.60;99.90;;;;;;5026436;28;20509;-71
2023/06/19 10:57:50;;;;;;;4.73;3.73;;;25.70;99.90;;;;;;5028363;28;20451;-71
2023/06/19 11:00:30;;;;;;;4.57;3.70;;;25.80;99.90;;;;;;5023756;28;20899;-71
2023/06/19 11:02:57;;;;;;;4.53;3.90;;;26.00;99.90;;;;;;5023320;28;20491;-71
2023/06/19 11:05:25;;;;;;;4.63;4.23;;;26.00;99.40;;;;;;5028098;28;20475;-71
2023/06/19 11:07:51;;;;;;;4.13;3.77;;;26.00;99.90;;;;;;5028125;28;20465;-71
2023/06/19 11:10:23;;;;;;;5.47;4.70;;;26.00;99.60;;;;;;5027964;28;20463;-71
2023/06/19 11:12:56;;;;;;;4.50;4.00;;;26.00;99.90;;;;;;5026316;28;20413;-71
2023/06/19 11:15:32;;;;;;;4.90;4.00;;;26.00;99.80;;;;;;5027891;28;20479;-71
2023/06/19 11:17:59;;;;;;;5.10;4.57;;;26.10;99.90;;;;;;5028339;28;20755;-71
2023/06/19 11:20:27;;;;;;;4.67;4.27;;;26.10;99.60;;;;;;5028099;28;20449;-70
2023/06/19 11:22:58;;;;;;;5.53;4.20;;;26.00;99.90;;;;;;5027357;28;20512;-71
2023/06/19 11:25:35;;;;;;;4.67;4.20;;;26.00;99.00;;;;;;5027712;28;20420;-70
2023/06/19 11:28:01;;;;;;;4.93;4.53;;;26.00;99.50;;;;;;5024737;28;20480;-71
2023/06/19 11:30:34;;;;;;;4.30;3.90;;;25.90;99.80;;;;;;5027843;28;20420;-71
2023/06/19 11:33:01;;;;;;;4.07;3.77;;;25.90;99.40;;;;;;5027226;28;20179;-71
2023/06/19 11:35:36;;;;;;;5.30;4.80;;;25.90;99.80;;;;;;5030130;28;20566;-71
2023/06/19 11:38:03;;;;;;;9.60;4.60;;;26.00;98.60;;;;;;5034367;28;20917;-71
2023/06/19 11:40:38;;;;;;;4.80;4.17;;;26.00;99.20;;;;;;5034196;28;20447;-71
2023/06/19 11:43:03;;;;;;;5.70;4.40;;;26.10;99.50;;;;;;5033640;28;20428;-70
2023/06/19 11:45:29;;;;;;;8.40;4.53;;;26.20;98.80;;;;;;5032747;28;20511;-71
2023/06/19 11:47:54;;;;;;;5.53;4.67;;;26.30;99.00;;;;;;5034510;28;20213;-71
2023/06/19 11:50:26;;;;;;;5.10;4.70;;;26.40;99.20;;;;;;5034207;28;20205;-71
2023/06/19 11:52:52;;;;;;;4.77;4.17;;;26.50;98.90;;;;;;5026057;28;20269;-71
2023/06/19 11:55:18;;;;;;;4.47;4.07;;;26.60;97.90;;;;;;5034026;28;20495;-71
2023/06/19 11:57:44;;;;;;;4.70;4.30;;;26.60;98.00;;;;;;5034383;28;20416;-71
2023/06/19 12:00:17;;;;;;;4.57;4.17;;;26.70;96.40;;;;;;5034236;28;20645;-71
2023/06/19 12:02:44;;;;;;;4.60;4.20;;;26.60;96.20;;;;;;5033741;28;20540;-71
2023/06/19 12:05:10;;;;;;;6.73;4.90;;;26.60;96.30;;;;;;5033877;28;20514;-71
2023/06/19 12:07:36;;;;;;;7.43;4.77;;;26.60;96.40;;;;;;5034634;28;20478;-71
2023/06/19 12:10:04;;;;;;;6.23;5.33;;;26.60;96.30;;;;;;5033481;28;20439;-71
2023/06/19 12:12:30;;;;;;;5.07;4.60;;;26.60;96.70;;;;;;5033707;28;20464;-71
2023/06/19 12:14:56;;;;;;;5.20;4.70;;;26.50;97.40;;;;;;5034599;28;20421;-71
2023/06/19 12:17:22;;;;;;;5.20;4.70;;;26.40;96.70;;;;;;5034818;28;20838;-71
2023/06/19 12:19:49;;;;;;;4.47;4.03;;;26.50;97.90;;;;;;5034685;28;20230;-71
2023/06/19 12:22:14;;;;;;;6.47;4.40;;;26.60;97.80;;;;;;5034143;28;20182;-71
2023/06/19 12:24:40;;;;;;;4.33;3.93;;;26.70;97.60;;;;;;5034437;28;20952;-71
2023/06/19 12:27:06;;;;;;;6.03;4.47;;;26.80;96.80;;;;;;5038930;28;20528;-71
2023/06/19 12:29:31;;;;;;;4.83;4.33;;;26.90;96.20;;;;;;5036094;28;20205;-71
2023/06/19 12:32:02;;;;;;;4.77;4.23;;;26.90;96.40;;;;;;5034063;28;20666;-71
2023/06/19 12:34:28;;;;;;;5.27;4.77;;;26.80;95.60;;;;;;5034331;28;20782;-71
2023/06/19 12:36:54;;;;;;;5.23;4.73;;;26.70;95.50;;;;;;5034570;28;20516;-71
2023/06/19 12:39:20;;;;;;;4.63;4.20;;;26.70;96.30;;;;;;5034403;28;20202;-71
2023/06/19 12:41:46;;;;;;;4.77;4.30;;;26.80;96.30;;;;;;5033889;28;20190;-71
2023/06/19 12:44:12;;;;;;;5.10;4.60;;;26.80;95.80;;;;;;5034203;28;20500;-71
2023/06/19 12:46:38;;;;;;;4.87;4.30;;;26.80;96.10;;;;;;5032006;28;20179;-71
2023/06/19 12:49:04;;;;;;;6.10;4.37;;;26.80;95.10;;;;;;5031212;28;20468;-70